createdAt,value
2022-11-24T00:00:51.284Z,95.38
2022-11-24T00:03:18.075Z,95.31
2022-11-24T00:05:44.563Z,95.31
2022-11-24T00:08:11.874Z,95.09
2022-11-24T00:10:38.262Z,94.83
2022-11-24T00:13:04.636Z,94.98
2022-11-24T00:15:31.008Z,94.53
2022-11-24T00:17:57.463Z,94.91
2022-11-24T00:20:23.845Z,94.63
2022-11-24T00:22:50.232Z,94.94
2022-11-24T00:25:16.683Z,94.67
2022-11-24T00:27:43.088Z,94.72
2022-11-24T00:30:09.872Z,94.54
2022-11-24T00:32:36.239Z,94.64
2022-11-24T00:35:02.684Z,94.71
2022-11-24T00:37:29.105Z,94.18
2022-11-24T00:39:55.490Z,94.74
2022-11-24T00:42:21.867Z,94.54
2022-11-24T00:44:48.239Z,94.49
2022-11-24T00:47:14.750Z,94.39
2022-11-24T00:49:41.202Z,94.26
2022-11-24T00:52:07.605Z,94.22
2022-11-24T00:54:34.311Z,94.28
2022-11-24T00:57:01.049Z,94.08
2022-11-24T00:59:27.466Z,93.83
2022-11-24T01:01:53.864Z,93.87
2022-11-24T01:04:20.351Z,93.92
2022-11-24T01:06:46.813Z,93.98
2022-11-24T01:09:13.198Z,94.26
2022-11-24T01:11:58.245Z,93.70
2022-11-24T01:14:25.108Z,93.94
2022-11-24T01:16:51.673Z,93.96
2022-11-24T01:19:18.406Z,93.95
2022-11-24T01:21:44.972Z,93.91
2022-11-24T01:24:11.847Z,93.70
2022-11-24T01:26:38.444Z,93.84
2022-11-24T01:29:04.853Z,93.82
2022-11-24T01:31:32.921Z,94.10
2022-11-24T01:33:59.361Z,94.01
2022-11-24T01:36:25.783Z,93.95
2022-11-24T01:38:52.194Z,94.08
2022-11-24T01:41:21.330Z,93.69
2022-11-24T01:43:48.607Z,93.83
2022-11-24T01:46:18.460Z,93.81
2022-11-24T01:49:05.088Z,93.73
2022-11-24T01:51:34.479Z,94.01
2022-11-24T01:54:07.760Z,93.80
2022-11-24T01:56:35.471Z,93.55
2022-11-24T01:59:03.231Z,93.50
2022-11-24T02:01:31.417Z,93.57
2022-11-24T02:03:58.372Z,93.10
2022-11-24T02:06:29.895Z,93.24
2022-11-24T02:09:13.718Z,93.05
2022-11-24T02:11:40.379Z,93.27
2022-11-24T02:14:09.466Z,92.80
2022-11-24T02:16:36.623Z,92.89
2022-11-24T02:19:06.495Z,92.80
2022-11-24T02:21:32.879Z,92.71
2022-11-24T02:24:04.112Z,92.54
2022-11-24T02:26:46.282Z,92.50
2022-11-24T02:29:14.254Z,92.23
2022-11-24T02:32:01.320Z,91.87
2022-11-24T02:34:27.996Z,91.89
2022-11-24T02:36:54.396Z,91.75
2022-11-24T02:39:20.862Z,91.83
2022-11-24T02:41:52.343Z,91.84
2022-11-24T02:44:20.526Z,91.55
2022-11-24T02:46:46.910Z,91.59
2022-11-24T02:49:13.289Z,91.21
2022-11-24T02:51:39.712Z,91.32
2022-11-24T02:54:06.097Z,91.04
2022-11-24T02:56:32.525Z,91.17
2022-11-24T02:58:58.897Z,91.02
2022-11-24T03:01:25.358Z,90.75
2022-11-24T03:03:51.784Z,90.52
2022-11-24T03:06:18.171Z,90.33
2022-11-24T03:08:44.760Z,89.97
2022-11-24T03:11:11.123Z,89.83
2022-11-24T03:13:37.495Z,89.81
2022-11-24T03:16:08.490Z,89.52
2022-11-24T03:18:34.927Z,89.38
2022-11-24T03:21:01.368Z,89.05
2022-11-24T03:23:27.792Z,89.07
2022-11-24T03:25:54.908Z,89.11
2022-11-24T03:28:21.273Z,89.11
2022-11-24T03:30:50.951Z,88.91
2022-11-24T03:33:17.353Z,88.81
2022-11-24T03:35:43.930Z,88.78
2022-11-24T03:38:10.355Z,88.82
2022-11-24T03:40:36.737Z,88.43
2022-11-24T03:43:03.115Z,88.27
2022-11-24T03:45:45.434Z,88.33
2022-11-24T03:48:13.199Z,88.11
2022-11-24T03:50:39.682Z,87.75
2022-11-24T03:53:06.061Z,87.91
2022-11-24T03:55:32.442Z,88.09
2022-11-24T03:57:58.814Z,88.25
2022-11-24T04:00:25.207Z,87.90
2022-11-24T04:02:51.619Z,88.14
2022-11-24T04:05:18.103Z,87.82
2022-11-24T04:07:44.547Z,87.67
2022-11-24T04:10:11.125Z,88.38
2022-11-24T04:12:46.500Z,88.06
2022-11-24T04:15:15.431Z,88.19
2022-11-24T04:17:42.008Z,88.10
2022-11-24T04:20:09.464Z,88.28
2022-11-24T04:22:35.818Z,88.38
2022-11-24T04:25:02.651Z,88.23
2022-11-24T04:27:29.143Z,88.40
2022-11-24T04:29:55.519Z,88.42
2022-11-24T04:32:21.928Z,88.46
2022-11-24T04:34:48.283Z,88.37
2022-11-24T04:37:14.673Z,88.38
2022-11-24T04:39:41.126Z,88.38
2022-11-24T04:42:07.500Z,88.56
2022-11-24T04:44:34.273Z,88.20
2022-11-24T04:47:01.283Z,88.12
2022-11-24T04:49:27.755Z,88.39
2022-11-24T04:51:54.123Z,88.17
2022-11-24T04:54:20.545Z,88.18
2022-11-24T04:56:50.320Z,88.22
2022-11-24T04:59:17.218Z,88.33
2022-11-24T05:01:44.518Z,88.26
2022-11-24T05:04:11.979Z,88.93
2022-11-24T05:06:38.611Z,88.51
2022-11-24T05:09:17.739Z,88.11
2022-11-24T05:11:44.294Z,88.57
2022-11-24T05:14:10.698Z,89.02
2022-11-24T05:16:37.739Z,88.71
2022-11-24T05:19:04.222Z,88.34
2022-11-24T05:21:30.619Z,88.47
2022-11-24T05:23:56.983Z,88.16
2022-11-24T05:26:23.369Z,87.90
2022-11-24T05:28:49.775Z,88.00
2022-11-24T05:31:16.213Z,87.68
2022-11-24T05:33:43.239Z,87.58
2022-11-24T05:36:29.843Z,87.56
2022-11-24T05:38:56.207Z,87.70
2022-11-24T05:41:22.708Z,87.86
2022-11-24T05:43:49.103Z,87.92
2022-11-24T05:46:15.578Z,87.81
2022-11-24T05:48:42.014Z,87.91
2022-11-24T05:51:09.488Z,88.59
2022-11-24T05:53:36.104Z,88.55
2022-11-24T05:56:03.881Z,88.56
2022-11-24T05:58:30.240Z,88.69
2022-11-24T06:00:56.661Z,88.97
2022-11-24T06:03:23.660Z,88.75
2022-11-24T06:05:50.083Z,88.91
2022-11-24T06:08:16.519Z,88.80
2022-11-24T06:10:42.934Z,89.01
2022-11-24T06:13:09.383Z,88.94
2022-11-24T06:15:37.557Z,88.68
2022-11-24T06:18:04.044Z,88.93
2022-11-24T06:20:32.906Z,88.45
2022-11-24T06:23:00.059Z,88.78
2022-11-24T06:25:26.699Z,88.73
2022-11-24T06:27:53.124Z,88.83
2022-11-24T06:30:19.617Z,88.62
2022-11-24T06:32:49.383Z,89.07
2022-11-24T06:35:16.452Z,88.98
2022-11-24T06:37:42.815Z,89.05
2022-11-24T06:40:09.684Z,89.38
2022-11-24T06:42:37.130Z,89.75
2022-11-24T06:45:08.806Z,90.26
2022-11-24T06:47:35.940Z,90.28
2022-11-24T06:50:02.689Z,90.33
2022-11-24T06:52:29.047Z,90.77
2022-11-24T06:54:55.534Z,90.76
2022-11-24T06:57:21.984Z,91.49
2022-11-24T06:59:48.470Z,90.99
2022-11-24T07:02:14.921Z,91.15
2022-11-24T07:04:41.266Z,91.42
2022-11-24T07:07:07.737Z,91.52
2022-11-24T07:09:34.227Z,92.19
2022-11-24T07:12:02.241Z,90.79
2022-11-24T07:14:28.602Z,90.89
2022-11-24T07:16:55.085Z,91.30
2022-11-24T07:19:24.852Z,91.35
2022-11-24T07:21:51.673Z,91.55
2022-11-24T07:24:18.041Z,91.66
2022-11-24T07:26:44.434Z,91.88
2022-11-24T07:29:10.796Z,92.15
2022-11-24T07:31:37.202Z,91.82
2022-11-24T07:34:03.669Z,92.03
2022-11-24T07:36:30.099Z,91.85
2022-11-24T07:38:56.546Z,92.03
2022-11-24T07:41:23.003Z,92.11
2022-11-24T07:43:49.512Z,92.44
2022-11-24T07:46:18.884Z,92.29
2022-11-24T07:48:45.832Z,92.35
2022-11-24T07:51:12.652Z,91.98
2022-11-24T07:53:39.219Z,91.71
2022-11-24T07:56:06.294Z,91.49
2022-11-24T07:58:35.891Z,91.71
2022-11-24T08:01:13.221Z,91.87
2022-11-24T08:03:39.978Z,91.69
2022-11-24T08:08:53.144Z,91.59
2022-11-24T08:11:19.659Z,91.54
2022-11-24T08:13:46.144Z,91.61
2022-11-24T08:16:15.015Z,91.32
2022-11-24T08:18:41.731Z,91.37
2022-11-24T08:21:12.195Z,91.55
2022-11-24T08:23:38.751Z,91.22
2022-11-24T08:26:08.678Z,91.47
2022-11-24T08:28:35.854Z,91.55
2022-11-24T08:31:10.483Z,91.44
2022-11-24T08:33:37.215Z,91.59
2022-11-24T08:36:05.464Z,91.46
2022-11-24T08:38:32.251Z,91.73
2022-11-24T08:41:11.476Z,92.05
2022-11-24T08:43:38.573Z,92.33
2022-11-24T08:46:07.257Z,92.17
2022-11-24T08:48:34.191Z,92.55
2022-11-24T08:51:07.217Z,92.53
2022-11-24T08:53:34.657Z,93.08
2022-11-24T08:56:01.352Z,92.77
2022-11-24T08:58:31.469Z,92.47
2022-11-24T09:01:09.802Z,92.00
2022-11-24T09:03:37.537Z,91.53
2022-11-24T09:06:04.138Z,91.24
2022-11-24T09:08:31.427Z,90.96
2022-11-24T09:11:17.099Z,90.70
2022-11-24T09:13:43.811Z,90.31
2022-11-24T09:16:21.695Z,90.45
2022-11-24T09:18:48.576Z,90.60
2022-11-24T09:21:18.111Z,90.56
2022-11-24T09:23:46.177Z,90.67
2022-11-24T09:26:20.877Z,90.61
2022-11-24T09:28:48.059Z,90.56
2022-11-24T09:31:16.753Z,90.32
2022-11-24T09:33:43.782Z,90.58
2022-11-24T09:36:10.472Z,90.38
2022-11-24T09:38:37.082Z,90.25
2022-11-24T09:41:34.553Z,89.42
2022-11-24T09:44:23.742Z,88.56
2022-11-24T09:47:02.941Z,88.39
2022-11-24T09:49:48.486Z,87.78
2022-11-24T09:52:22.212Z,88.25
2022-11-24T09:54:56.682Z,88.32
2022-11-24T09:57:25.875Z,88.20
2022-11-24T09:59:52.307Z,88.22
2022-11-24T10:02:18.773Z,87.98
2022-11-24T10:04:46.519Z,87.68
2022-11-24T10:07:21.166Z,87.58
2022-11-24T10:10:09.571Z,87.30
2022-11-24T10:13:05.158Z,86.76
2022-11-24T10:15:57.258Z,84.75
2022-11-24T10:19:00.870Z,83.04
2022-11-24T10:21:51.147Z,80.53
2022-11-24T10:24:20.443Z,80.16
2022-11-24T10:26:51.910Z,79.04
2022-11-24T10:29:24.947Z,80.08
2022-11-24T10:31:54.256Z,80.54
2022-11-24T10:34:34.437Z,80.13
2022-11-24T10:37:34.679Z,78.83
2022-11-24T10:40:40.605Z,77.90
2022-11-24T10:43:01.260Z,76.00
2022-11-24T10:45:28.902Z,75.43
2022-11-24T10:47:55.637Z,74.28
2022-11-24T10:50:23.841Z,73.46
2022-11-24T10:53:08.555Z,71.66
2022-11-24T10:55:56.764Z,73.11
2022-11-24T10:58:42.642Z,75.11
2022-11-24T11:01:15.336Z,76.54
2022-11-24T11:03:49.482Z,77.21
2022-11-24T11:06:25.660Z,77.72
2022-11-24T11:09:24.704Z,78.01
2022-11-24T11:11:53.130Z,78.59
2022-11-24T11:14:31.169Z,78.40
2022-11-24T11:16:58.003Z,78.94
2022-11-24T11:19:54.233Z,79.11
2022-11-24T11:22:29.179Z,79.22
2022-11-24T11:25:41.042Z,79.16
2022-11-24T11:28:28.598Z,79.47
2022-11-24T11:31:18.110Z,79.74
2022-11-24T11:34:04.585Z,80.57
2022-11-24T11:36:33.617Z,80.25
2022-11-24T11:39:00.071Z,80.05
2022-11-24T11:41:31.637Z,79.75
2022-11-24T11:44:21.605Z,80.25
2022-11-24T11:46:48.179Z,79.89
2022-11-24T11:49:14.691Z,79.80
2022-11-24T11:51:52.975Z,78.77
2022-11-24T11:54:34.724Z,80.14
2022-11-24T11:57:24.855Z,79.74
2022-11-24T12:00:08.065Z,79.37
2022-11-24T12:02:51.700Z,79.97
2022-11-24T12:05:53.926Z,79.13
2022-11-24T12:08:56.025Z,80.17
2022-11-24T12:11:33.009Z,79.80
2022-11-24T12:14:31.504Z,79.32
2022-11-24T12:17:07.545Z,79.88
2022-11-24T12:19:45.485Z,79.61
2022-11-24T12:22:39.083Z,79.24
2022-11-24T12:25:28.130Z,79.43
2022-11-24T12:28:24.359Z,79.17
2022-11-24T12:31:06.961Z,79.77
2022-11-24T12:33:52.374Z,79.30
2022-11-24T12:36:35.670Z,79.08
2022-11-24T12:39:07.000Z,79.13
2022-11-24T12:41:53.082Z,78.80
2022-11-24T12:44:30.959Z,77.83
2022-11-24T12:47:30.798Z,76.76
2022-11-24T12:50:14.131Z,77.34
2022-11-24T12:52:58.675Z,78.00
2022-11-24T12:55:26.537Z,77.97
2022-11-24T12:58:11.200Z,78.09
2022-11-24T13:01:08.327Z,78.27
2022-11-24T13:03:46.374Z,78.39
2022-11-24T13:06:23.730Z,78.20
2022-11-24T13:08:50.173Z,78.37
2022-11-24T13:11:25.171Z,78.14
2022-11-24T13:14:04.713Z,78.12
2022-11-24T13:16:48.530Z,78.63
2022-11-24T13:19:20.932Z,78.89
2022-11-24T13:21:51.706Z,78.63
2022-11-24T13:24:19.264Z,78.65
2022-11-24T13:26:48.943Z,78.18
2022-11-24T13:29:25.492Z,77.53
2022-11-24T13:31:52.226Z,77.77
2022-11-24T13:34:40.514Z,77.57
2022-11-24T13:37:31.459Z,77.81
2022-11-24T13:40:14.217Z,77.92
2022-11-24T13:43:12.726Z,77.77
2022-11-24T13:45:39.061Z,78.42
2022-11-24T13:48:21.492Z,78.17
2022-11-24T13:50:51.871Z,78.32
2022-11-24T13:53:33.311Z,78.17
2022-11-24T13:56:02.641Z,78.03
2022-11-24T13:58:35.982Z,77.85
2022-11-24T14:01:07.220Z,77.83
2022-11-24T14:03:47.533Z,78.01
2022-11-24T14:06:40.383Z,78.08
2022-11-24T14:09:27.008Z,78.15
2022-11-24T14:12:12.181Z,78.45
2022-11-24T14:14:39.185Z,78.51
2022-11-24T14:17:19.765Z,78.56
2022-11-24T14:19:53.997Z,78.48
2022-11-24T14:22:21.825Z,78.50
2022-11-24T14:24:53.035Z,78.26
2022-11-24T14:27:26.664Z,78.63
2022-11-24T14:29:58.529Z,79.29
2022-11-24T14:32:25.047Z,79.16
2022-11-24T14:34:52.116Z,79.39
2022-11-24T14:37:19.571Z,79.38
2022-11-24T14:39:46.501Z,79.48
2022-11-24T14:42:23.060Z,79.39
2022-11-24T14:44:58.654Z,79.48
2022-11-24T14:47:33.771Z,79.95
2022-11-24T14:50:19.212Z,79.67
2022-11-24T14:52:55.654Z,80.23
2022-11-24T14:55:30.359Z,80.03
2022-11-24T14:57:57.404Z,80.28
2022-11-24T15:00:28.434Z,80.86
2022-11-24T15:03:08.454Z,80.86
2022-11-24T15:05:55.622Z,81.18
2022-11-24T15:08:24.230Z,81.25
2022-11-24T15:10:57.328Z,81.19
2022-11-24T15:13:24.499Z,81.40
2022-11-24T15:16:17.295Z,81.53
2022-11-24T15:18:46.734Z,81.83
2022-11-24T15:21:18.925Z,82.02
2022-11-24T15:24:14.091Z,82.01
2022-11-24T15:26:42.291Z,83.17
2022-11-24T15:29:10.241Z,82.66
2022-11-24T15:31:37.316Z,82.68
2022-11-24T15:34:03.853Z,82.89
2022-11-24T15:36:30.225Z,82.81
2022-11-24T15:38:56.578Z,82.96
2022-11-24T15:41:29.063Z,82.87
2022-11-24T15:43:59.091Z,83.53
2022-11-24T15:46:27.095Z,83.46
2022-11-24T15:48:53.961Z,83.72
2022-11-24T15:51:20.883Z,83.74
2022-11-24T15:53:51.172Z,83.95
2022-11-24T15:56:25.366Z,83.91
2022-11-24T15:58:52.698Z,84.15
2022-11-24T16:01:20.653Z,84.22
2022-11-24T16:03:48.660Z,84.22
2022-11-24T16:06:24.073Z,84.56
2022-11-24T16:08:52.072Z,84.51
2022-11-24T16:11:18.440Z,84.98
2022-11-24T16:13:50.316Z,84.83
2022-11-24T16:16:19.642Z,84.96
2022-11-24T16:18:46.125Z,85.32
2022-11-24T16:21:12.504Z,85.42
2022-11-24T16:23:38.920Z,85.43
2022-11-24T16:26:06.856Z,85.24
2022-11-24T16:28:33.243Z,85.42
2022-11-24T16:30:59.692Z,85.81
2022-11-24T16:33:26.144Z,85.57
2022-11-24T16:35:52.530Z,85.56
2022-11-24T16:38:19.662Z,85.68
2022-11-24T16:40:52.864Z,85.58
2022-11-24T16:43:19.626Z,85.86
2022-11-24T16:45:46.481Z,85.73
2022-11-24T16:48:12.935Z,85.76
2022-11-24T16:50:39.321Z,86.19
2022-11-24T16:53:05.808Z,86.11
2022-11-24T16:55:32.178Z,86.22
2022-11-24T16:57:58.539Z,86.53
2022-11-24T17:00:24.938Z,86.29
2022-11-24T17:02:51.482Z,86.03
2022-11-24T17:05:17.949Z,86.16
2022-11-24T17:07:44.401Z,85.84
2022-11-24T17:10:11.876Z,85.98
2022-11-24T17:12:38.406Z,85.74
2022-11-24T17:18:22.194Z,85.83
2022-11-24T17:20:38.347Z,85.62
2022-11-24T17:23:04.703Z,85.60
2022-11-24T17:25:32.279Z,85.71
2022-11-24T17:27:58.838Z,85.46
2022-11-24T17:30:25.311Z,85.51
2022-11-24T17:32:56.616Z,85.68
2022-11-24T17:35:23.587Z,85.72
2022-11-24T17:37:50.003Z,85.64
2022-11-24T17:40:34.358Z,85.70
2022-11-24T17:43:00.822Z,86.01
2022-11-24T17:45:29.045Z,85.99
2022-11-24T17:47:56.222Z,86.18
2022-11-24T17:50:26.131Z,85.93
2022-11-24T17:52:53.583Z,86.29
2022-11-24T17:55:20.048Z,86.27
2022-11-24T17:57:46.452Z,85.82
2022-11-24T18:00:13.532Z,86.24
2022-11-24T18:02:40.042Z,85.97
2022-11-24T18:05:06.835Z,85.95
2022-11-24T18:07:35.925Z,85.73
2022-11-24T18:10:02.333Z,85.96
2022-11-24T18:12:28.739Z,86.01
2022-11-24T18:14:55.201Z,85.88
2022-11-24T18:17:21.592Z,85.89
2022-11-24T18:19:47.959Z,85.78
2022-11-24T18:22:14.306Z,85.65
2022-11-24T18:24:40.947Z,85.72
2022-11-24T18:27:07.414Z,85.37
2022-11-24T18:29:33.819Z,85.65
2022-11-24T18:32:00.289Z,85.51
2022-11-24T18:34:26.781Z,85.23
2022-11-24T18:36:53.251Z,85.28
2022-11-24T18:39:19.667Z,85.28
2022-11-24T18:41:46.679Z,85.28
2022-11-24T18:44:13.088Z,84.90
2022-11-24T18:46:39.446Z,85.05
2022-11-24T18:49:06.919Z,85.02
2022-11-24T18:51:33.714Z,84.82
2022-11-24T18:54:02.005Z,84.86
2022-11-24T18:56:29.053Z,84.70
2022-11-24T18:58:56.300Z,84.87
2022-11-24T19:01:25.103Z,84.86
2022-11-24T19:03:54.014Z,84.77
2022-11-24T19:06:22.131Z,84.71
2022-11-24T19:08:48.891Z,84.97
2022-11-24T19:11:26.300Z,84.74
2022-11-24T19:13:52.745Z,84.59
2022-11-24T19:16:20.288Z,85.05
2022-11-24T19:18:53.634Z,84.89
2022-11-24T19:21:21.191Z,84.64
2022-11-24T19:23:47.797Z,84.74
2022-11-24T19:26:14.211Z,84.84
2022-11-24T19:28:40.576Z,85.06
2022-11-24T19:31:09.153Z,84.69
2022-11-24T19:33:36.426Z,84.89
2022-11-24T19:36:14.323Z,84.72
2022-11-24T19:38:41.818Z,85.02
2022-11-24T19:41:13.527Z,84.57
2022-11-24T19:43:40.722Z,84.46
2022-11-24T19:46:09.655Z,84.28
2022-11-24T19:48:43.656Z,84.63
2022-11-24T19:51:13.158Z,84.41
2022-11-24T19:53:39.625Z,83.95
2022-11-24T19:56:07.759Z,83.75
2022-11-24T19:58:34.787Z,83.76
2022-11-24T20:01:11.686Z,83.28
2022-11-24T20:03:39.062Z,83.43
2022-11-24T20:06:06.763Z,83.18
2022-11-24T20:08:34.551Z,82.87
2022-11-24T20:11:08.099Z,82.90
2022-11-24T20:13:35.942Z,82.64
2022-11-24T20:16:03.860Z,82.66
2022-11-24T20:18:31.574Z,82.61
2022-11-24T20:21:05.199Z,82.74
2022-11-24T20:23:31.979Z,82.76
2022-11-24T20:26:10.102Z,82.23
2022-11-24T20:28:37.015Z,82.76
2022-11-24T20:31:05.728Z,82.47
2022-11-24T20:33:32.230Z,82.35
2022-11-24T20:36:03.634Z,82.45
2022-11-24T20:38:30.720Z,82.48
2022-11-24T20:41:16.494Z,81.96
2022-11-24T20:43:44.177Z,83.01
2022-11-24T20:46:11.985Z,82.38
2022-11-24T20:48:38.971Z,82.08
2022-11-24T20:51:07.895Z,82.12
2022-11-24T20:53:35.166Z,81.82
2022-11-24T20:56:06.661Z,81.93
2022-11-24T20:58:34.502Z,82.03
2022-11-24T21:01:09.792Z,81.59
2022-11-24T21:03:42.598Z,81.65
2022-11-24T21:06:11.650Z,81.86
2022-11-24T21:08:39.153Z,81.75
2022-11-24T21:11:06.694Z,81.46
2022-11-24T21:13:34.454Z,81.43
2022-11-24T21:16:16.638Z,81.32
2022-11-24T21:18:44.582Z,81.11
2022-11-24T21:21:11.794Z,81.51
2022-11-24T21:23:38.374Z,81.62
2022-11-24T21:26:07.449Z,81.45
2022-11-24T21:28:36.848Z,81.65
2022-11-24T21:31:08.288Z,81.55
2022-11-24T21:33:38.547Z,81.83
2022-11-24T21:36:05.643Z,81.76
2022-11-24T21:38:32.059Z,82.06
2022-11-24T21:41:06.308Z,81.61
2022-11-24T21:43:33.185Z,81.88
2022-11-24T21:46:01.170Z,81.94
2022-11-24T21:48:27.618Z,81.98
2022-11-24T21:50:54.018Z,81.66
2022-11-24T21:53:20.383Z,81.66
2022-11-24T21:56:00.834Z,81.73
2022-11-24T21:58:27.995Z,82.05
2022-11-24T22:00:54.929Z,81.80
2022-11-24T22:03:21.594Z,81.53
2022-11-24T22:05:55.086Z,81.53
2022-11-24T22:08:22.145Z,81.76
2022-11-24T22:10:48.506Z,81.95
2022-11-24T22:13:15.033Z,81.92
2022-11-24T22:15:41.384Z,81.88
2022-11-24T22:18:07.781Z,81.82
2022-11-24T22:20:34.399Z,81.96
2022-11-24T22:23:00.752Z,82.40
2022-11-24T22:25:27.119Z,81.97
2022-11-24T22:27:53.490Z,81.92
2022-11-24T22:30:19.922Z,82.65
2022-11-24T22:32:46.335Z,82.87
2022-11-24T22:35:12.695Z,82.39
2022-11-24T22:37:39.104Z,82.40
2022-11-24T22:40:06.134Z,82.37
2022-11-24T22:42:32.481Z,82.47
2022-11-24T22:44:58.835Z,82.59
2022-11-24T22:47:25.336Z,82.69
2022-11-24T22:49:51.734Z,82.80
2022-11-24T22:52:18.141Z,83.14
2022-11-24T22:54:44.548Z,82.98
2022-11-24T22:57:10.945Z,82.82
2022-11-24T22:59:37.429Z,82.77
2022-11-24T23:02:03.787Z,82.91
2022-11-24T23:04:30.278Z,83.26
2022-11-24T23:06:56.740Z,83.48
2022-11-24T23:09:23.090Z,83.71
2022-11-24T23:11:49.510Z,83.70
2022-11-24T23:14:16.250Z,84.13
2022-11-24T23:16:43.087Z,84.00
2022-11-24T23:19:09.638Z,84.13
2022-11-24T23:21:38.183Z,84.36
2022-11-24T23:24:08.626Z,84.58
2022-11-24T23:26:37.045Z,84.42
2022-11-24T23:29:04.602Z,85.06
2022-11-24T23:31:31.219Z,85.27
2022-11-24T23:34:00.584Z,85.63
2022-11-24T23:36:27.919Z,86.39
2022-11-24T23:38:54.500Z,86.09
2022-11-24T23:41:23.291Z,86.04
2022-11-24T23:43:50.080Z,86.66
2022-11-24T23:46:17.681Z,87.06
2022-11-24T23:48:44.882Z,87.93
2022-11-24T23:51:16.836Z,88.59
2022-11-24T23:53:43.874Z,88.97
2022-11-24T23:56:16.042Z,89.36
2022-11-24T23:58:42.676Z,89.41
